Time;durP1;ratioP1;P1;durP2;ratioP2;P2;SDS_P1;SDS_P2;PMS_P1;PMS_P2;Temp;Humidity;BMP_temperature;BMP_pressure;BME280_temperature;BME280_humidity;BME280_pressure;Samples;Min_cycle;Max_cycle;Signal;HPM_P1;HPM_P2
2019/12/04 00:02:13;;;;;;;22;12.8;;;;;;;;;;;;;
2019/12/04 00:04:40;;;;;;;20.9;12.7;;;;;;;;;;;;;
2019/12/04 00:07:03;;;;;;;21.9;12.8;;;;;;;;;;;;;
2019/12/04 00:09:29;;;;;;;25.7;15.5;;;;;;;;;;;;;
2019/12/04 00:11:56;;;;;;;20.7;13.1;;;;;;;;;;;;;
2019/12/04 00:14:20;;;;;;;18.6;12.1;;;;;;;;;;;;;
2019/12/04 00:16:51;;;;;;;18.5;12;;;;;;;;;;;;;
2019/12/04 00:19:11;;;;;;;16.7;9;;;;;;;;;;;;;
2019/12/04 00:21:39;;;;;;;16.7;10.4;;;;;;;;;;;;;
2019/12/04 00:24:07;;;;;;;13.8;9;;;;;;;;;;;;;
2019/12/04 00:26:32;;;;;;;14.2;9.3;;;;;;;;;;;;;
2019/12/04 00:28:56;;;;;;;13.4;9.1;;;;;;;;;;;;;
2019/12/04 00:34:10;;;;;;;15.8;9.8;;;;;;;;;;;;;
2019/12/04 00:36:11;;;;;;;14.9;10;;;;;;;;;;;;;
2019/12/04 00:38:35;;;;;;;17.4;10.1;;;;;;;;;;;;;
2019/12/04 00:41:01;;;;;;;17.3;10.5;;;;;;;;;;;;;
2019/12/04 00:43:27;;;;;;;18.8;11.6;;;;;;;;;;;;;
2019/12/04 00:48:16;;;;;;;21.4;11.9;;;;;;;;;;;;;
2019/12/04 00:50:41;;;;;;;17.9;11.7;;;;;;;;;;;;;
2019/12/04 00:55:33;;;;;;;22.4;13.7;;;;;;;;;;;;;
2019/12/04 00:57:57;;;;;;;20.9;13.5;;;;;;;;;;;;;
2019/12/04 01:00:25;;;;;;;20.7;12.7;;;;;;;;;;;;;
2019/12/04 01:02:46;;;;;;;19.6;12.5;;;;;;;;;;;;;
2019/12/04 01:05:11;;;;;;;19.5;12;;;;;;;;;;;;;
2019/12/04 01:08:02;;;;;;;18.8;11.5;;;;;;;;;;;;;
2019/12/04 01:10:08;;;;;;;20.4;11;;;;;;;;;;;;;
2019/12/04 01:12:31;;;;;;;17.9;10.5;;;;;;;;;;;;;
2019/12/04 01:14:53;;;;;;;18.5;11.5;;;;;;;;;;;;;
2019/12/04 01:17:25;;;;;;;16.6;10.3;;;;;;;;;;;;;
2019/12/04 01:20:20;;;;;;;14.5;9.6;;;;;;;;;;;;;
2019/12/04 01:22:46;;;;;;;14;9.4;;;;;;;;;;;;;
2019/12/04 01:27:28;;;;;;;14.8;9.3;;;;;;;;;;;;;
2019/12/04 01:32:32;;;;;;;13.4;9.8;;;;;;;;;;;;;
2019/12/04 01:34:48;;;;;;;14.2;9.2;;;;;;;;;;;;;
2019/12/04 01:37:20;;;;;;;13.4;9.5;;;;;;;;;;;;;
2019/12/04 01:39:44;;;;;;;14.8;9.9;;;;;;;;;;;;;
2019/12/04 01:42:08;;;;;;;18.2;10.3;;;;;;;;;;;;;
2019/12/04 01:44:39;;;;;;;14.5;9.4;;;;;;;;;;;;;
2019/12/04 01:46:58;;;;;;;13.1;9.1;;;;;;;;;;;;;
2019/12/04 01:49:26;;;;;;;15;8.9;;;;;;;;;;;;;
2019/12/04 01:51:52;;;;;;;14.4;8.9;;;;;;;;;;;;;
2019/12/04 01:54:20;;;;;;;15.4;9;;;;;;;;;;;;;
2019/12/04 01:57:19;;;;;;;13.6;9;;;;;;;;;;;;;
2019/12/04 01:59:46;;;;;;;14.2;8.6;;;;;;;;;;;;;
2019/12/04 02:02:13;;;;;;;13.1;8.6;;;;;;;;;;;;;
2019/12/04 02:04:43;;;;;;;14.3;8.5;;;;;;;;;;;;;
2019/12/04 02:07:05;;;;;;;15.6;9;;;;;;;;;;;;;
2019/12/04 02:09:31;;;;;;;14.5;9;;;;;;;;;;;;;
2019/12/04 02:12:21;;;;;;;12.2;8.3;;;;;;;;;;;;;
2019/12/04 02:14:36;;;;;;;13.4;8.5;;;;;;;;;;;;;
2019/12/04 02:17:11;;;;;;;12.6;8.9;;;;;;;;;;;;;
2019/12/04 02:19:34;;;;;;;10.8;7.5;;;;;;;;;;;;;
2019/12/04 02:22:02;;;;;;;11.1;7.5;;;;;;;;;;;;;
2019/12/04 02:24:26;;;;;;;11.5;7.6;;;;;;;;;;;;;
2019/12/04 02:32:20;;;;;;;11.2;7.2;;;;;;;;;;;;;
2019/12/04 02:34:13;;;;;;;11.3;7.2;;;;;;;;;;;;;
2019/12/04 02:36:35;;;;;;;10.1;6.8;;;;;;;;;;;;;
2019/12/04 02:39:07;;;;;;;11.9;6.8;;;;;;;;;;;;;
2019/12/04 02:41:29;;;;;;;10.6;6.8;;;;;;;;;;;;;
2019/12/04 02:43:53;;;;;;;10.9;6.4;;;;;;;;;;;;;
2019/12/04 02:46:24;;;;;;;9.2;5.7;;;;;;;;;;;;;
2019/12/04 02:49:03;;;;;;;8.8;6;;;;;;;;;;;;;
2019/12/04 02:51:20;;;;;;;8.7;6.2;;;;;;;;;;;;;
2019/12/04 02:53:40;;;;;;;11.5;7.2;;;;;;;;;;;;;
2019/12/04 02:56:09;;;;;;;10.6;6.9;;;;;;;;;;;;;
2019/12/04 02:58:35;;;;;;;9.7;6.5;;;;;;;;;;;;;
2019/12/04 03:00:59;;;;;;;8.5;5;;;;;;;;;;;;;
2019/12/04 03:03:23;;;;;;;7.3;4.5;;;;;;;;;;;;;
2019/12/04 03:05:48;;;;;;;7.5;5;;;;;;;;;;;;;
2019/12/04 03:10:51;;;;;;;6.4;4.4;;;;;;;;;;;;;
2019/12/04 03:13:25;;;;;;;9;5.1;;;;;;;;;;;;;
2019/12/04 03:15:49;;;;;;;8.2;5;;;;;;;;;;;;;
2019/12/04 03:18:18;;;;;;;8.6;6;;;;;;;;;;;;;
2019/12/04 03:20:39;;;;;;;9.9;6.6;;;;;;;;;;;;;
2019/12/04 03:23:19;;;;;;;9.7;6.9;;;;;;;;;;;;;
2019/12/04 03:25:29;;;;;;;10.5;6.7;;;;;;;;;;;;;
2019/12/04 03:27:58;;;;;;;12.2;6.9;;;;;;;;;;;;;
2019/12/04 03:30:21;;;;;;;9.8;6.5;;;;;;;;;;;;;
2019/12/04 03:32:48;;;;;;;11.3;6.4;;;;;;;;;;;;;
2019/12/04 03:35:29;;;;;;;8.7;5.6;;;;;;;;;;;;;
2019/12/04 03:37:35;;;;;;;8.5;5.5;;;;;;;;;;;;;
2019/12/04 03:40:04;;;;;;;8;4.5;;;;;;;;;;;;;
2019/12/04 03:42:36;;;;;;;9.3;5.4;;;;;;;;;;;;;
2019/12/04 03:45:01;;;;;;;7.2;4.9;;;;;;;;;;;;;
2019/12/04 03:47:25;;;;;;;8;4.9;;;;;;;;;;;;;
2019/12/04 03:50:00;;;;;;;6.9;4.7;;;;;;;;;;;;;
2019/12/04 03:52:21;;;;;;;10.1;5.9;;;;;;;;;;;;;
2019/12/04 03:54:43;;;;;;;10;6.8;;;;;;;;;;;;;
2019/12/04 03:57:07;;;;;;;10.1;7.1;;;;;;;;;;;;;
2019/12/04 03:59:38;;;;;;;7.6;4.8;;;;;;;;;;;;;
2019/12/04 04:02:43;;;;;;;9;5.6;;;;;;;-2.87;88.28711;941.4196;;;;
2019/12/04 04:05:08;;;;;;;8.1;5.1;;;;;;;-2.87;88.79785;941.3856;;;;
2019/12/04 04:07:36;;;;;;;7.6;4.9;;;;;;;-2.84;88.49316;941.4589;;;;
2019/12/04 04:10:12;;;;;;;8.7;4.8;;;;;;;-2.85;88.12695;941.3953;;;;
2019/12/04 04:15:02;;;;;;;18.9;8.7;;;;;;;-2.92;88.68848;941.3936;;;;
2019/12/04 04:17:21;;;;;;;16;7.6;;;;;;;-2.91;88.36816;941.2709;;;;
2019/12/04 04:19:50;;;;;;;14.6;7.1;;;;;;;-2.94;88.08594;941.2122;;;;
2019/12/04 04:22:23;;;;;;;8.3;5.7;;;;;;;-3.02;88.29004;941.2282;;;;
2019/12/04 04:24:53;;;;;;;12.2;5.9;;;;;;;-3.06;88.25977;941.1692;;;;
2019/12/04 04:27:23;;;;;;;8.9;5.3;;;;;;;-3.02;88.09082;941.2092;;;;
2019/12/04 04:29:52;;;;;;;8.2;5;;;;;;;-3.02;88.33398;941.1886;;;;
2019/12/04 04:32:17;;;;;;;9.2;5.2;;;;;;;-2.98;88.60645;941.1594;;;;
2019/12/04 04:34:41;;;;;;;7.5;4.8;;;;;;;-2.72;88.92969;941.0783;;;;
2019/12/04 04:37:10;;;;;;;7.9;5.3;;;;;;;-2.58;87.67285;941.0248;;;;
2019/12/04 04:39:34;;;;;;;17.5;8.2;;;;;;;-2.54;87.42676;941.0764;;;;
2019/12/04 04:42:07;;;;;;;22.7;10.7;;;;;;;-2.49;87.02832;941.005;;;;
2019/12/04 04:44:31;;;;;;;21;10.2;;;;;;;-2.54;86.68555;941.0726;;;;
2019/12/04 04:46:56;;;;;;;15.7;8.2;;;;;;;-2.6;86.27344;941.022;;;;
2019/12/04 04:49:23;;;;;;;16.1;7.9;;;;;;;-2.72;86.36035;941.0655;;;;
2019/12/04 04:51:47;;;;;;;9.5;6;;;;;;;-2.8;86.76563;940.9863;;;;
2019/12/04 04:57:19;;;;;;;9.2;4.7;;;;;;;-2.99;87.9082;940.9587;;;;
2019/12/04 04:59:09;;;;;;;8.8;5.1;;;;;;;-2.91;88.2793;940.9514;;;;
2019/12/04 05:01:40;;;;;;;9.4;5.5;;;;;;;-2.85;87.33008;940.8541;;;;
2019/12/04 05:04:06;;;;;;;9;5.2;;;;;;;-2.94;88.00781;940.8909;;;;
2019/12/04 05:06:31;;;;;;;7.6;4.6;;;;;;;-3.05;88.46094;940.8614;;;;
2019/12/04 05:08:59;;;;;;;9.8;5.4;;;;;;;-3.1;88.64844;940.8442;;;;
2019/12/04 05:11:27;;;;;;;10.1;5.8;;;;;;;-3.06;88.58984;940.7929;;;;
2019/12/04 05:13:55;;;;;;;11.2;6.2;;;;;;;-2.99;88.31738;940.8055;;;;
2019/12/04 05:16:30;;;;;;;12.4;5.8;;;;;;;-2.98;88.48535;940.7912;;;;
2019/12/04 05:18:57;;;;;;;11.3;5.7;;;;;;;-2.89;88.23926;940.8493;;;;
2019/12/04 05:21:30;;;;;;;9.8;6.6;;;;;;;-2.72;87.77734;940.81;;;;
2019/12/04 05:23:58;;;;;;;14.5;10.4;;;;;;;-2.79;87.52051;940.717;;;;
2019/12/04 05:26:20;;;;;;;11.6;8;;;;;;;-2.9;87.78516;940.7832;;;;
2019/12/04 05:28:59;;;;;;;12;8.2;;;;;;;-2.94;87.55469;940.8336;;;;
2019/12/04 05:31:11;;;;;;;10.4;6.6;;;;;;;-2.87;87.60059;940.7761;;;;
2019/12/04 05:33:39;;;;;;;9.2;4.4;;;;;;;-2.62;88.43945;940.8084;;;;
2019/12/04 05:36:06;;;;;;;8.1;4.5;;;;;;;-2.44;88.02344;940.8434;;;;
2019/12/04 05:38:35;;;;;;;6;4.1;;;;;;;-2.45;87.42578;940.8369;;;;
2019/12/04 05:41:05;;;;;;;7.8;4.8;;;;;;;-2.31;87.36523;940.8633;;;;
2019/12/04 05:43:30;;;;;;;5;3.3;;;;;;;-2.22;86.21875;940.7806;;;;
2019/12/04 05:45:59;;;;;;;10.4;4.3;;;;;;;-2.07;85.52051;940.8222;;;;
2019/12/04 05:48:27;;;;;;;6.3;4;;;;;;;-1.87;84.7168;940.8516;;;;
2019/12/04 05:51:04;;;;;;;6.6;3.9;;;;;;;-1.9;84.95508;940.7982;;;;
2019/12/04 05:53:30;;;;;;;9.3;6.2;;;;;;;-1.95;84.85742;940.8982;;;;
2019/12/04 05:55:55;;;;;;;9.1;5.2;;;;;;;-1.95;85.00098;940.8351;;;;
2019/12/04 05:58:26;;;;;;;8.2;5.3;;;;;;;-1.98;85.62598;940.8767;;;;
2019/12/04 06:00:59;;;;;;;9.5;6.2;;;;;;;-2.14;85.21582;940.8894;;;;
2019/12/04 06:03:27;;;;;;;12.4;6.8;;;;;;;-2.34;85.62988;941.0081;;;;
2019/12/04 06:05:51;;;;;;;12.7;7.9;;;;;;;-2.24;85.84961;941.0217;;;;
2019/12/04 06:08:19;;;;;;;12.1;7.3;;;;;;;-2.23;84.82227;941.0342;;;;
2019/12/04 06:13:24;;;;;;;14.4;7.8;;;;;;;-2.3;84.50879;941.0905;;;;
2019/12/04 06:15:38;;;;;;;11.8;7.2;;;;;;;-2.31;84.91699;941.1144;;;;
2019/12/04 06:18:07;;;;;;;12;7;;;;;;;-2.32;85.02637;941.0508;;;;
2019/12/04 06:20:31;;;;;;;10.8;5.9;;;;;;;-2.38;85.22363;941.0883;;;;
2019/12/04 06:23:04;;;;;;;9.5;5.9;;;;;;;-2.42;85.78125;941.1394;;;;
2019/12/04 06:25:51;;;;;;;12;6.4;;;;;;;-2.35;85.55078;941.1197;;;;
2019/12/04 06:28:22;;;;;;;14.4;10.7;;;;;;;-2.23;84.92188;941.1219;;;;
2019/12/04 06:30:53;;;;;;;16.6;12.1;;;;;;;-2.18;84.2002;941.1631;;;;
2019/12/04 06:33:18;;;;;;;15.2;8.9;;;;;;;-2.47;85.70313;941.2245;;;;
2019/12/04 06:35:45;;;;;;;14.4;9.5;;;;;;;-2.43;85.54492;941.2177;;;;
2019/12/04 06:38:12;;;;;;;18.8;10.8;;;;;;;-2.45;85.69629;941.1842;;;;
2019/12/04 06:40:43;;;;;;;12.9;9.6;;;;;;;-2.43;85.30078;941.1591;;;;
2019/12/04 06:43:09;;;;;;;22.5;12.8;;;;;;;-2.6;85.97656;941.1133;;;;
2019/12/04 06:45:41;;;;;;;15.3;9.5;;;;;;;-2.69;86.46582;941.1688;;;;
2019/12/04 06:48:12;;;;;;;16.7;8.3;;;;;;;-2.74;86.30078;941.178;;;;
2019/12/04 06:50:37;;;;;;;18;11.4;;;;;;;-2.66;85.54297;941.1716;;;;
2019/12/04 06:53:06;;;;;;;20.1;10.3;;;;;;;-2.82;86.37305;941.2141;;;;
2019/12/04 06:58:32;;;;;;;18.1;11.2;;;;;;;-2.98;89.2041;941.2242;;;;
2019/12/04 07:00:38;;;;;;;19.2;10.5;;;;;;;-2.83;88.77246;941.233;;;;
2019/12/04 07:03:07;;;;;;;19.2;10.2;;;;;;;-2.82;87.41504;941.3025;;;;
2019/12/04 07:05:34;;;;;;;12.5;7.4;;;;;;;-2.86;87.60254;941.28;;;;
2019/12/04 07:08:05;;;;;;;15.4;7.1;;;;;;;-2.85;87.4834;941.2542;;;;
2019/12/04 07:10:27;;;;;;;14.8;6.5;;;;;;;-2.85;87.41895;941.2505;;;;
2019/12/04 07:13:01;;;;;;;9.7;5.6;;;;;;;-2.87;87.96777;941.2211;;;;
2019/12/04 07:15:33;;;;;;;10.4;6.4;;;;;;;-2.85;88.10254;941.1981;;;;
2019/12/04 07:17:59;;;;;;;10.4;7.2;;;;;;;-2.75;87.89258;941.2914;;;;
2019/12/04 07:20:29;;;;;;;14;7.9;;;;;;;-2.65;87.80273;941.3328;;;;
2019/12/04 07:23:04;;;;;;;14.6;7.2;;;;;;;-2.65;87.66797;941.3303;;;;
2019/12/04 07:25:26;;;;;;;10.8;6.6;;;;;;;-2.65;87.53711;941.3025;;;;
2019/12/04 07:27:53;;;;;;;12.2;6.6;;;;;;;-2.67;87.71289;941.2742;;;;
2019/12/04 07:30:20;;;;;;;11.2;6.3;;;;;;;-2.66;87.79004;941.1875;;;;
2019/12/04 07:32:45;;;;;;;11.7;6.3;;;;;;;-2.71;88.33203;941.1372;;;;
2019/12/04 07:35:12;;;;;;;10.8;5.8;;;;;;;-2.39;88.59082;941.1799;;;;
2019/12/04 07:37:37;;;;;;;11.7;6.4;;;;;;;-1.82;86.19141;941.2061;;;;
2019/12/04 07:40:04;;;;;;;11.4;6.3;;;;;;;-1.46;84.08789;941.2233;;;;
2019/12/04 07:42:33;;;;;;;12.2;6.1;;;;;;;-1.51;84.18945;941.1697;;;;
2019/12/04 07:44:59;;;;;;;12.4;7;;;;;;;-1.42;84.25195;941.1376;;;;
2019/12/04 07:47:21;;;;;;;15.6;8.8;;;;;;;-1.21;84.15137;941.1375;;;;
2019/12/04 07:50:04;;;;;;;16.6;10.7;;;;;;;-0.37;81.00293;941.1464;;;;
2019/12/04 07:52:34;;;;;;;32.2;17.4;;;;;;;0.27;77.62598;941.1141;;;;
2019/12/04 07:55:01;;;;;;;32.7;18;;;;;;;1.16;74.22559;941.1701;;;;
2019/12/04 07:57:31;;;;;;;27.1;16.4;;;;;;;2.13;70.57813;941.0706;;;;
2019/12/04 08:00:06;;;;;;;40.1;25.7;;;;;;;3.29;65.6084;941.1348;;;;
2019/12/04 08:02:33;;;;;;;25.9;16.9;;;;;;;4.08;61.72363;941.0251;;;;
2019/12/04 08:05:10;;;;;;;25.2;16.4;;;;;;;4.72;59.76758;941.0891;;;;
2019/12/04 08:07:35;;;;;;;18.7;13.9;;;;;;;4.93;58.36426;941.0934;;;;
2019/12/04 08:10:01;;;;;;;17.7;9.7;;;;;;;4.24;60.05957;941.1191;;;;
2019/12/04 08:12:28;;;;;;;16.1;8.5;;;;;;;4.23;60.38477;941.1581;;;;
2019/12/04 08:15:01;;;;;;;11.3;6.4;;;;;;;3.87;61.28906;941.0098;;;;
2019/12/04 08:17:23;;;;;;;10.6;6.1;;;;;;;3.84;61.77832;941.0589;;;;
2019/12/04 08:19:51;;;;;;;10.7;5.1;;;;;;;4.18;61.3125;941.0511;;;;
2019/12/04 08:22:48;;;;;;;10;5.9;;;;;;;5.47;58.12305;941.0425;;;;
2019/12/04 08:25:07;;;;;;;9.9;5.9;;;;;;;6.56;54.28906;940.9656;;;;
2019/12/04 08:28:26;;;;;;;8.9;6;;;;;;;6.82;53.15527;940.9353;;;;
2019/12/04 08:30:54;;;;;;;9.4;6.3;;;;;;;5.72;56.2832;940.9441;;;;
2019/12/04 08:33:17;;;;;;;11.5;6.9;;;;;;;4.98;58.92383;940.9872;;;;
2019/12/04 08:35:47;;;;;;;15.2;8.2;;;;;;;4.6;60.56152;940.9589;;;;
2019/12/04 08:38:16;;;;;;;15.4;10;;;;;;;3.6;64.04785;941.0072;;;;
2019/12/04 08:40:42;;;;;;;15.9;11.5;;;;;;;2.66;68.24414;941.0301;;;;
2019/12/04 08:43:08;;;;;;;13.9;9.4;;;;;;;2.22;70.58105;940.9481;;;;
2019/12/04 08:45:34;;;;;;;11.7;8.2;;;;;;;1.16;74.72754;940.9659;;;;
2019/12/04 08:48:00;;;;;;;18.3;10;;;;;;;0.86;76.75098;940.9756;;;;
2019/12/04 08:51:19;;;;;;;12.8;9.1;;;;;;;0.73;78.03418;940.9931;;;;
2019/12/04 08:53:52;;;;;;;11;7.7;;;;;;;0.64;79.16504;940.9749;;;;
2019/12/04 08:56:24;;;;;;;9.3;5.1;;;;;;;0.53;79.71289;941.0249;;;;
2019/12/04 08:58:58;;;;;;;8;4.1;;;;;;;0.42;79.98242;940.8782;;;;
2019/12/04 09:03:53;;;;;;;5.3;3.7;;;;;;;0.54;80.30566;940.8945;;;;
2019/12/04 09:06:15;;;;;;;7.8;4.4;;;;;;;0.76;80.02539;940.8981;;;;
2019/12/04 09:08:48;;;;;;;9;5.9;;;;;;;0.68;80.1084;940.89;;;;
2019/12/04 09:11:28;;;;;;;12.3;7;;;;;;;0.93;79.77734;940.9152;;;;
2019/12/04 09:14:14;;;;;;;16.1;8.2;;;;;;;1.08;79.10254;940.8632;;;;
2019/12/04 09:19:01;;;;;;;13.9;7.1;;;;;;;1.27;78.52344;940.9594;;;;
2019/12/04 09:21:27;;;;;;;11.9;7.9;;;;;;;1.48;77.90234;940.9671;;;;
2019/12/04 09:23:54;;;;;;;16.5;9.7;;;;;;;1.71;77.43066;940.9069;;;;
2019/12/04 09:27:09;;;;;;;34.4;21.6;;;;;;;1.85;77.33301;940.9504;;;;
2019/12/04 09:29:32;;;;;;;41.3;25.5;;;;;;;2.03;76.01172;941.0013;;;;
2019/12/04 09:31:49;;;;;;;33.8;18.9;;;;;;;2.11;75.47754;940.9877;;;;
2019/12/04 09:34:19;;;;;;;19.2;12;;;;;;;1.96;76.11035;941.015;;;;
2019/12/04 09:37:08;;;;;;;17.5;11.7;;;;;;;1.78;76.23633;941.0421;;;;
2019/12/04 09:39:23;;;;;;;18.7;12;;;;;;;1.62;76.59863;941.0549;;;;
2019/12/04 09:41:47;;;;;;;15.2;11.2;;;;;;;1.52;76.18945;941.0609;;;;
2019/12/04 09:44:17;;;;;;;15.5;11.6;;;;;;;1.52;77.1377;941.0388;;;;
2019/12/04 09:46:43;;;;;;;16.3;11.8;;;;;;;1.56;77.29297;941.0817;;;;
2019/12/04 09:49:17;;;;;;;16.5;10.5;;;;;;;1.57;75.57129;940.9178;;;;
2019/12/04 09:51:41;;;;;;;15.5;10.9;;;;;;;1.58;76.11133;940.9155;;;;
2019/12/04 09:54:12;;;;;;;17.8;12.1;;;;;;;1.62;76.76563;940.9425;;;;
2019/12/04 09:57:22;;;;;;;20.5;13.1;;;;;;;1.52;75.89648;940.8922;;;;
2019/12/04 09:59:44;;;;;;;22;12;;;;;;;1.67;77.62598;940.9052;;;;
2019/12/04 10:02:15;;;;;;;14.5;11.2;;;;;;;1.72;76.99609;940.8666;;;;
2019/12/04 10:04:50;;;;;;;15.4;11.7;;;;;;;1.69;76.90234;940.746;;;;
2019/12/04 10:07:18;;;;;;;16.7;11.9;;;;;;;1.75;76.54297;940.8067;;;;
2019/12/04 10:09:45;;;;;;;18.4;12.3;;;;;;;1.92;75.44336;940.678;;;;
2019/12/04 10:12:11;;;;;;;19.2;12.9;;;;;;;1.97;75.55371;940.7218;;;;
2019/12/04 10:14:35;;;;;;;18.3;12.9;;;;;;;2.05;75.75879;940.6881;;;;
2019/12/04 10:17:16;;;;;;;17;12.2;;;;;;;2.13;75.35742;940.5928;;;;
2019/12/04 10:19:49;;;;;;;21;13.5;;;;;;;2.23;75.80078;940.6249;;;;
2019/12/04 10:22:28;;;;;;;19.4;13.6;;;;;;;2.31;76.36426;940.5861;;;;
2019/12/04 10:24:59;;;;;;;21.8;14.1;;;;;;;2.35;76.01367;940.5148;;;;
2019/12/04 10:27:25;;;;;;;20.6;13.9;;;;;;;2.4;76.11328;940.3544;;;;
2019/12/04 10:30:04;;;;;;;20.4;14.1;;;;;;;2.44;76.29688;940.4238;;;;
2019/12/04 10:32:46;;;;;;;23.4;14.4;;;;;;;2.37;75.04199;940.437;;;;
2019/12/04 10:35:11;;;;;;;18.9;14;;;;;;;2.41;75.67773;940.4518;;;;
2019/12/04 10:37:39;;;;;;;20.8;13.8;;;;;;;2.53;75.13672;940.3844;;;;
2019/12/04 10:40:07;;;;;;;22.2;14.5;;;;;;;2.36;75.8457;940.3485;;;;
2019/12/04 10:42:36;;;;;;;20.2;13;;;;;;;2.34;74.3418;940.4011;;;;
2019/12/04 10:45:09;;;;;;;19.8;12.9;;;;;;;2.25;75.20117;940.3886;;;;
2019/12/04 10:47:54;;;;;;;22;17;;;;;;;2.17;74.18945;940.3158;;;;
2019/12/04 10:53:08;;;;;;;23.2;15.5;;;;;;;1.97;75.59863;940.2837;;;;
2019/12/04 10:55:02;;;;;;;19.8;15.3;;;;;;;1.93;76.80859;940.2913;;;;
2019/12/04 10:57:31;;;;;;;18.1;15;;;;;;;1.85;76.22559;940.2856;;;;
2019/12/04 10:59:57;;;;;;;20.6;14.1;;;;;;;1.84;75.09473;940.2497;;;;
2019/12/04 11:02:27;;;;;;;16.9;13.2;;;;;;;1.89;74.77832;940.1688;;;;
2019/12/04 11:04:53;;;;;;;20.1;14.6;;;;;;;1.87;74.38379;940.247;;;;
2019/12/04 11:07:21;;;;;;;17.3;13.2;;;;;;;2;73.71191;940.2693;;;;
2019/12/04 11:09:48;;;;;;;17;12.9;;;;;;;2.11;74.2793;940.2478;;;;
2019/12/04 11:12:25;;;;;;;15.9;12.4;;;;;;;2.03;73.69434;940.1328;;;;
2019/12/04 11:14:49;;;;;;;16.3;12.8;;;;;;;2.16;73.21387;940.1716;;;;
2019/12/04 11:17:16;;;;;;;19.3;13.1;;;;;;;2.21;74.15137;940.126;;;;
2019/12/04 11:19:45;;;;;;;16.3;12.9;;;;;;;2.34;73.60254;940.233;;;;
2019/12/04 11:22:12;;;;;;;17.7;12.6;;;;;;;2.34;73.17676;940.1968;;;;
2019/12/04 11:24:36;;;;;;;17.8;12.8;;;;;;;2.56;72.03906;940.1658;;;;
2019/12/04 11:27:03;;;;;;;16.2;13.1;;;;;;;2.6;72.05566;940.1578;;;;
2019/12/04 11:29:30;;;;;;;18.9;13.1;;;;;;;2.72;73.76855;940.0837;;;;
2019/12/04 11:32:12;;;;;;;15.6;12.3;;;;;;;2.68;73.21484;940.024;;;;
2019/12/04 11:34:43;;;;;;;16.1;12.9;;;;;;;2.8;72.51563;939.9282;;;;
2019/12/04 11:37:08;;;;;;;18;11.5;;;;;;;2.84;71.68262;940.0506;;;;
2019/12/04 11:39:37;;;;;;;15.9;11.6;;;;;;;2.79;71.60645;939.9658;;;;
2019/12/04 11:41:59;;;;;;;15.6;11.7;;;;;;;2.78;71.64941;940.0374;;;;
2019/12/04 11:44:25;;;;;;;14.8;11.7;;;;;;;2.86;70.87988;940.0129;;;;
2019/12/04 11:50:13;;;;;;;14.5;11.1;;;;;;;3.08;70.33105;939.9344;;;;
2019/12/04 11:52:38;;;;;;;13.4;9.9;;;;;;;3.33;69.07129;939.978;;;;
2019/12/04 11:55:09;;;;;;;13;9.8;;;;;;;3.26;69.74512;939.8878;;;;
2019/12/04 11:57:43;;;;;;;13.6;9.5;;;;;;;3.33;68.7334;939.9031;;;;
2019/12/04 11:59:56;;;;;;;12;9.2;;;;;;;3.37;68.90918;939.878;;;;
2019/12/04 12:02:26;;;;;;;12.6;9.5;;;;;;;3.3;69.23438;939.8343;;;;
2019/12/04 12:04:49;;;;;;;12.8;9.9;;;;;;;3.46;68.5293;939.8312;;;;
2019/12/04 12:07:20;;;;;;;13.4;10.4;;;;;;;3.53;69.11426;939.8148;;;;
2019/12/04 12:09:47;;;;;;;21;11.4;;;;;;;3.52;69.53906;939.8059;;;;
2019/12/04 12:12:19;;;;;;;17.8;11.8;;;;;;;3.56;69.24316;939.7084;;;;
2019/12/04 12:14:51;;;;;;;17.4;10.8;;;;;;;3.59;69.09082;939.6638;;;;
2019/12/04 12:17:19;;;;;;;15.3;11.1;;;;;;;3.79;68.51563;939.6565;;;;
2019/12/04 12:20:02;;;;;;;16.6;11.6;;;;;;;3.77;69.17773;939.6969;;;;
2019/12/04 12:22:25;;;;;;;13.9;10.9;;;;;;;3.78;68.94141;939.6797;;;;
2019/12/04 12:25:26;;;;;;;14.2;10.7;;;;;;;3.8;69.55273;939.579;;;;
2019/12/04 12:27:54;;;;;;;12.8;10.2;;;;;;;3.78;69.69434;939.6111;;;;
2019/12/04 12:30:30;;;;;;;14.6;10.7;;;;;;;3.81;69.0918;939.6599;;;;
2019/12/04 12:33:09;;;;;;;15.3;10.2;;;;;;;3.95;67.77734;939.5909;;;;
2019/12/04 12:35:45;;;;;;;11.9;9.9;;;;;;;4.13;68.04199;939.5676;;;;
2019/12/04 12:38:08;;;;;;;13;10.4;;;;;;;3.95;69.02539;939.5578;;;;
2019/12/04 12:40:39;;;;;;;14.5;10;;;;;;;4.06;67.95215;939.5219;;;;
2019/12/04 12:43:25;;;;;;;14.6;10.6;;;;;;;4.11;68.20801;939.5426;;;;
2019/12/04 12:45:57;;;;;;;13.4;10.2;;;;;;;4.11;67.79199;939.4955;;;;
2019/12/04 12:48:23;;;;;;;14.4;10.1;;;;;;;4.15;68.09961;939.4052;;;;
2019/12/04 12:50:53;;;;;;;14.5;10.5;;;;;;;4.14;68.13379;939.4295;;;;
2019/12/04 12:53:25;;;;;;;14.3;9.8;;;;;;;4.24;67.6543;939.2692;;;;
2019/12/04 12:55:49;;;;;;;12.7;9.6;;;;;;;4.46;66.6416;939.3061;;;;
2019/12/04 13:03:37;;;;;;;14.5;10.5;;;;;;;4.61;67.02539;939.3438;;;;
2019/12/04 13:06:18;;;;;;;16.1;10.7;;;;;;;4.67;66.6084;939.3513;;;;
2019/12/04 13:08:49;;;;;;;15.9;10.9;;;;;;;4.76;66.80078;939.3209;;;;
2019/12/04 13:11:28;;;;;;;13.9;10.2;;;;;;;4.78;66.28711;939.2714;;;;
2019/12/04 13:13:58;;;;;;;14.2;10.9;;;;;;;4.78;66.36621;939.1949;;;;
2019/12/04 13:16:31;;;;;;;13.9;10.7;;;;;;;4.92;65.94727;939.2824;;;;
2019/12/04 13:18:57;;;;;;;15.5;10.8;;;;;;;5.14;65.61035;939.2172;;;;
2019/12/04 13:21:28;;;;;;;13.9;10.6;;;;;;;6.64;61.91309;939.2614;;;;
2019/12/04 13:23:58;;;;;;;13;9.5;;;;;;;8.9;53.65332;939.1448;;;;
2019/12/04 13:26:27;;;;;;;13.5;9.5;;;;;;;10.52;49.20703;939.1414;;;;
2019/12/04 13:29:18;;;;;;;12.5;8.7;;;;;;;12.15;44.93652;939.0832;;;;
2019/12/04 13:31:50;;;;;;;11.7;8.7;;;;;;;13.59;40.74902;939.089;;;;
2019/12/04 13:34:14;;;;;;;11.2;8.1;;;;;;;14.64;38.15137;939.1016;;;;
2019/12/04 13:36:55;;;;;;;11.3;7.8;;;;;;;15.55;36.34766;939.0591;;;;
2019/12/04 13:39:26;;;;;;;12.1;7.7;;;;;;;16.63;34.19141;939.057;;;;
2019/12/04 13:41:56;;;;;;;12;7.8;;;;;;;16.67;33.5;939.0342;;;;
2019/12/04 13:44:26;;;;;;;11.1;7.6;;;;;;;16.46;34.03906;939.005;;;;
2019/12/04 13:46:59;;;;;;;13.3;7.7;;;;;;;16.39;33.79102;939.0256;;;;
2019/12/04 13:49:38;;;;;;;10.5;7.5;;;;;;;16.5;34.01855;939.1074;;;;
2019/12/04 13:52:03;;;;;;;10.8;8.8;;;;;;;15.06;35.69531;939.1096;;;;
2019/12/04 13:54:36;;;;;;;11.8;8.7;;;;;;;12.7;40.87305;939.1635;;;;
2019/12/04 13:57:02;;;;;;;14.2;9.5;;;;;;;11.25;44.4082;939.2339;;;;
2019/12/04 14:00:24;;;;;;;12;9.7;;;;;;;9.93;47.44141;939.1873;;;;
2019/12/04 14:05:10;;;;;;;14;10.3;;;;;;;7.91;53.35938;939.1895;;;;
2019/12/04 14:07:25;;;;;;;15.6;10.8;;;;;;;7.4;55.13281;939.1744;;;;
2019/12/04 14:09:57;;;;;;;18.3;11.2;;;;;;;7.02;56.46582;939.2232;;;;
2019/12/04 14:12:24;;;;;;;16.4;10.9;;;;;;;6.71;57.40918;939.2371;;;;
2019/12/04 14:15:10;;;;;;;16;10.9;;;;;;;6.35;58.66113;939.2202;;;;
2019/12/04 14:17:12;;;;;;;16.5;11.2;;;;;;;5.87;60.38086;939.1373;;;;
2019/12/04 14:19:38;;;;;;;17.4;10.9;;;;;;;5.57;61.35449;939.1834;;;;
2019/12/04 14:22:09;;;;;;;15.6;10.5;;;;;;;5.48;61.70215;939.218;;;;
2019/12/04 14:24:58;;;;;;;15.5;10.4;;;;;;;5.4;61.81445;939.212;;;;
2019/12/04 14:27:23;;;;;;;16.2;10;;;;;;;5.33;62.27832;939.149;;;;
2019/12/04 14:29:54;;;;;;;15.4;10.6;;;;;;;5.29;62.71094;939.1248;;;;
2019/12/04 14:35:15;;;;;;;24.4;13.2;;;;;;;4.83;64.67188;939.2141;;;;
2019/12/04 14:37:47;;;;;;;26.8;14.8;;;;;;;4.53;66.49414;939.2675;;;;
2019/12/04 14:40:18;;;;;;;33.5;18;;;;;;;4.47;68.00684;939.2372;;;;
2019/12/04 14:42:43;;;;;;;35;18.3;;;;;;;4.27;69.25684;939.2537;;;;
2019/12/04 14:45:12;;;;;;;40.4;20;;;;;;;4.03;70.60156;939.257;;;;
2019/12/04 14:47:38;;;;;;;35.3;19.2;;;;;;;3.8;71.96777;939.2993;;;;
2019/12/04 14:50:03;;;;;;;30.5;15.5;;;;;;;3.66;72.92285;939.2534;;;;
2019/12/04 14:52:35;;;;;;;26.9;15.3;;;;;;;3.59;73.3916;939.2849;;;;
2019/12/04 14:55:00;;;;;;;28.9;14.4;;;;;;;3.48;74.03711;939.2455;;;;
2019/12/04 14:57:37;;;;;;;30.1;15.4;;;;;;;3.45;74.07715;939.2232;;;;
2019/12/04 15:00:00;;;;;;;24.4;14.2;;;;;;;3.29;74.68848;939.1902;;;;
2019/12/04 15:02:36;;;;;;;21.8;12.8;;;;;;;3.06;75.97168;939.2581;;;;
2019/12/04 15:05:02;;;;;;;23.7;12.9;;;;;;;2.94;76.83691;939.2564;;;;
2019/12/04 15:07:33;;;;;;;22.7;13.2;;;;;;;2.84;77.37988;939.2416;;;;
2019/12/04 15:10:04;;;;;;;28;15.5;;;;;;;2.82;77.58789;939.2122;;;;
2019/12/04 15:12:29;;;;;;;28.3;16.6;;;;;;;2.73;77.9873;939.2336;;;;
2019/12/04 15:14:52;;;;;;;25;16.3;;;;;;;2.55;78.83984;939.2307;;;;
2019/12/04 15:17:20;;;;;;;28.1;16.6;;;;;;;2.41;79.69824;939.255;;;;
2019/12/04 15:20:18;;;;;;;27.3;18.8;;;;;;;2.2;80.55664;939.226;;;;
2019/12/04 15:22:41;;;;;;;27.1;18.5;;;;;;;1.87;82.26074;939.1749;;;;
2019/12/04 15:25:09;;;;;;;30.3;20.6;;;;;;;1.82;82.7207;939.1702;;;;
2019/12/04 15:27:36;;;;;;;41.8;28.3;;;;;;;1.86;82.51465;939.1482;;;;
2019/12/04 15:32:43;;;;;;;40.2;25.1;;;;;;;1.76;82.87598;939.1208;;;;
2019/12/04 15:35:21;;;;;;;38.5;24.9;;;;;;;1.72;83.14844;939.0355;;;;
2019/12/04 15:37:43;;;;;;;36.3;24;;;;;;;1.67;83.38379;939.0678;;;;
2019/12/04 15:40:03;;;;;;;35.2;23.6;;;;;;;1.61;83.57422;939.0416;;;;
2019/12/04 15:42:38;;;;;;;38;24.2;;;;;;;1.62;83.74414;939.0323;;;;
2019/12/04 15:45:23;;;;;;;33.9;24.5;;;;;;;1.52;84.29395;939.0061;;;;
2019/12/04 15:48:15;;;;;;;34;24;;;;;;;1.42;84.95605;938.9263;;;;
2019/12/04 15:53:36;;;;;;;37.2;24.2;;;;;;;1.42;84.68652;938.8859;;;;
2019/12/04 15:56:00;;;;;;;38.5;28.6;;;;;;;1.58;83.80176;938.8947;;;;
2019/12/04 15:58:28;;;;;;;33.4;23.3;;;;;;;1.54;83.67188;938.8546;;;;
2019/12/04 16:00:59;;;;;;;29.2;22.1;;;;;;;1.32;84.25488;938.8408;;;;
2019/12/04 16:03:32;;;;;;;30.3;20.6;;;;;;;0.84;86.90527;938.8842;;;;
2019/12/04 16:06:03;;;;;;;31.4;22.9;;;;;;;0.8;88.02344;938.8522;;;;
2019/12/04 16:08:34;;;;;;;34.8;23.6;;;;;;;0.85;87.89844;938.7888;;;;
2019/12/04 16:13:24;;;;;;;32.8;19.2;;;;;;;0.96;87.03027;938.6891;;;;
2019/12/04 16:16:25;;;;;;;34.5;23.9;;;;;;;1.11;86.14355;938.8103;;;;
2019/12/04 16:18:59;;;;;;;49.8;34.2;;;;;;;1.09;85.90527;938.8041;;;;
2019/12/04 16:24:12;;;;;;;32.2;24.5;;;;;;;0.95;86.97266;938.8013;;;;
2019/12/04 16:26:50;;;;;;;31.3;22.1;;;;;;;1.07;85.92383;938.8047;;;;
2019/12/04 16:29:14;;;;;;;29.2;21;;;;;;;1.1;85.54102;938.7059;;;;
2019/12/04 16:31:44;;;;;;;38.7;26.2;;;;;;;1.09;85.66016;938.8284;;;;
2019/12/04 16:34:09;;;;;;;40;29.1;;;;;;;1.06;85.98926;938.8195;;;;
2019/12/04 16:37:12;;;;;;;34.9;26.5;;;;;;;1.07;86.48242;938.801;;;;
2019/12/04 16:39:25;;;;;;;30.4;22.1;;;;;;;1.08;86.33887;938.8702;;;;